createdAt,value
2022-08-12T00:02:04.437Z,18.60
2022-08-12T00:04:52.819Z,18.48
2022-08-12T00:07:39.290Z,18.48
2022-08-12T00:10:27.265Z,18.28
2022-08-12T00:13:13.082Z,18.20
2022-08-12T00:16:01.931Z,17.90
2022-08-12T00:18:47.652Z,18.18
2022-08-12T00:21:35.973Z,18.22
2022-08-12T00:24:22.941Z,18.31
2022-08-12T00:27:10.187Z,18.20
2022-08-12T00:29:55.981Z,17.98
2022-08-12T00:32:56.743Z,17.84
2022-08-12T00:35:44.462Z,17.97
2022-08-12T00:38:30.532Z,18.07
2022-08-12T00:41:19.500Z,17.97
2022-08-12T00:43:49.584Z,17.98
2022-08-12T00:46:32.736Z,18.00
2022-08-12T00:49:04.088Z,17.94
2022-08-12T00:51:45.992Z,17.72
2022-08-12T00:54:14.886Z,17.86
2022-08-12T00:56:43.182Z,17.97
2022-08-12T00:59:13.253Z,18.11
2022-08-12T01:02:02.504Z,17.91
2022-08-12T01:04:53.963Z,17.94
2022-08-12T01:07:45.008Z,17.83
2022-08-12T01:10:39.136Z,17.91
2022-08-12T01:13:19.924Z,18.11
2022-08-12T01:15:53.690Z,18.17
2022-08-12T01:18:23.989Z,18.10
2022-08-12T01:21:01.204Z,17.98
2022-08-12T01:24:30.285Z,17.94
2022-08-12T01:26:56.121Z,17.94
2022-08-12T01:29:33.122Z,18.03
2022-08-12T01:32:07.389Z,17.84
2022-08-12T01:34:38.585Z,17.73
2022-08-12T01:37:10.295Z,17.35
2022-08-12T01:40:35.557Z,17.20
2022-08-12T01:42:41.575Z,17.49
2022-08-12T01:45:12.419Z,17.69
2022-08-12T01:47:49.678Z,17.32
2022-08-12T01:50:26.459Z,17.28
2022-08-12T01:53:06.429Z,17.25
2022-08-12T01:55:38.284Z,17.00
2022-08-12T01:58:53.193Z,17.02
2022-08-12T02:01:24.991Z,17.41
2022-08-12T02:04:24.469Z,17.59
2022-08-12T02:07:18.267Z,17.65
2022-08-12T02:10:50.290Z,17.58
2022-08-12T02:13:11.286Z,17.59
2022-08-12T02:15:50.789Z,17.59
2022-08-12T02:18:26.100Z,17.35
2022-08-12T02:21:02.543Z,17.34
2022-08-12T02:23:32.964Z,16.93
2022-08-12T02:26:05.822Z,17.08
2022-08-12T02:28:35.871Z,17.21
2022-08-12T02:31:09.072Z,17.15
2022-08-12T02:33:38.826Z,17.03
2022-08-12T02:36:07.442Z,17.23
2022-08-12T02:38:37.261Z,17.38
2022-08-12T02:41:08.261Z,17.41
2022-08-12T02:43:41.479Z,17.32
2022-08-12T02:46:14.913Z,17.32
2022-08-12T02:48:49.083Z,17.10
2022-08-12T02:51:20.739Z,17.15
2022-08-12T02:54:03.059Z,17.07
2022-08-12T02:56:37.718Z,16.97
2022-08-12T02:59:06.892Z,17.00
2022-08-12T03:01:47.410Z,17.11
2022-08-12T03:04:21.474Z,17.04
2022-08-12T03:07:00.644Z,16.99
2022-08-12T03:09:43.073Z,16.94
2022-08-12T03:12:22.381Z,17.00
2022-08-12T03:14:53.165Z,16.94
2022-08-12T03:17:30.456Z,16.77
2022-08-12T03:20:10.629Z,16.69
2022-08-12T03:22:41.145Z,16.71
2022-08-12T03:25:17.330Z,16.80
2022-08-12T03:27:51.689Z,16.69
2022-08-12T03:30:21.489Z,16.52
2022-08-12T03:32:52.839Z,16.69
2022-08-12T03:35:40.695Z,16.77
2022-08-12T03:38:16.187Z,16.80
2022-08-12T03:41:14.972Z,16.55
2022-08-12T03:44:22.894Z,16.58
2022-08-12T03:47:19.496Z,16.68
2022-08-12T03:50:07.261Z,16.56
2022-08-12T03:52:52.732Z,16.62
2022-08-12T03:55:38.568Z,16.55
2022-08-12T03:58:25.690Z,16.59
2022-08-12T04:00:55.050Z,16.59
2022-08-12T04:03:40.094Z,16.59
2022-08-12T04:06:11.634Z,16.62
2022-08-12T04:08:40.782Z,16.41
2022-08-12T04:11:29.169Z,16.47
2022-08-12T04:14:07.378Z,16.52
2022-08-12T04:16:36.380Z,16.55
2022-08-12T04:19:07.219Z,16.45
2022-08-12T04:21:37.793Z,16.52
2022-08-12T04:24:12.105Z,16.54
2022-08-12T04:26:40.831Z,16.54
2022-08-12T04:29:10.462Z,16.49
2022-08-12T04:31:40.848Z,16.63
2022-08-12T04:34:11.843Z,16.58
2022-08-12T04:36:43.273Z,16.55
2022-08-12T04:39:13.108Z,16.66
2022-08-12T04:41:58.522Z,16.77
2022-08-12T04:44:29.116Z,16.96
2022-08-12T04:46:57.174Z,17.07
2022-08-12T04:49:26.604Z,17.11
2022-08-12T04:51:59.494Z,17.08
2022-08-12T04:54:28.920Z,17.07
2022-08-12T04:57:04.213Z,17.20
2022-08-12T04:59:46.711Z,17.32
2022-08-12T05:02:21.089Z,17.32
2022-08-12T05:04:52.768Z,17.41
2022-08-12T05:07:24.345Z,17.53
2022-08-12T05:10:01.928Z,17.68
2022-08-12T05:12:36.664Z,17.79
2022-08-12T05:15:19.465Z,17.63
2022-08-12T05:18:00.221Z,17.65
2022-08-12T05:20:31.004Z,17.59
2022-08-12T05:23:13.507Z,17.80
2022-08-12T05:25:44.235Z,17.69
2022-08-12T05:28:13.844Z,17.79
2022-08-12T05:30:44.101Z,17.76
2022-08-12T05:33:13.782Z,17.89
2022-08-12T05:35:43.101Z,17.75
2022-08-12T05:38:32.705Z,17.89
2022-08-12T05:41:01.631Z,17.97
2022-08-12T05:43:29.872Z,17.96
2022-08-12T05:45:58.221Z,18.01
2022-08-12T05:48:26.286Z,18.12
2022-08-12T05:50:56.721Z,18.41
2022-08-12T05:53:26.202Z,18.48
2022-08-12T05:55:54.839Z,18.53
2022-08-12T05:58:22.801Z,18.59
2022-08-12T06:00:50.905Z,18.65
2022-08-12T06:03:19.405Z,18.76
2022-08-12T06:05:55.119Z,18.90
2022-08-12T06:08:27.408Z,18.89
2022-08-12T06:10:57.165Z,18.90
2022-08-12T06:13:52.932Z,19.01
2022-08-12T06:16:16.898Z,19.14
2022-08-12T06:18:45.022Z,19.25
2022-08-12T06:21:16.091Z,19.36
2022-08-12T06:23:46.751Z,19.39
2022-08-12T06:26:16.734Z,19.49
2022-08-12T06:28:48.654Z,19.62
2022-08-12T06:31:32.160Z,19.78
2022-08-12T06:35:25.825Z,19.87
2022-08-12T06:36:48.706Z,20.00
2022-08-12T06:39:18.846Z,20.18
2022-08-12T06:42:31.965Z,20.28
2022-08-12T06:44:55.190Z,20.45
2022-08-12T06:47:23.160Z,20.57
2022-08-12T06:49:52.599Z,20.69
2022-08-12T06:52:25.050Z,20.72
2022-08-12T06:54:55.366Z,20.87
2022-08-12T06:58:05.262Z,20.92
2022-08-12T07:00:16.886Z,21.09
2022-08-12T07:02:46.410Z,21.19
2022-08-12T07:05:15.681Z,21.29
2022-08-12T07:07:47.971Z,21.38
2022-08-12T07:10:18.021Z,21.47
2022-08-12T07:12:46.371Z,21.57
2022-08-12T07:15:14.391Z,21.69
2022-08-12T07:17:45.651Z,21.83
2022-08-12T07:20:49.761Z,21.98
2022-08-12T07:23:07.453Z,22.05
2022-08-12T07:25:40.855Z,22.09
2022-08-12T07:28:15.990Z,22.33
2022-08-12T07:30:48.549Z,22.49
2022-08-12T07:33:19.905Z,22.67
2022-08-12T07:35:48.416Z,22.80
2022-08-12T07:38:29.690Z,22.91
2022-08-12T07:41:05.624Z,23.00
2022-08-12T07:43:35.505Z,23.04
2022-08-12T07:46:05.705Z,23.12
2022-08-12T07:48:38.215Z,23.18
2022-08-12T07:51:06.930Z,23.26
2022-08-12T07:53:48.595Z,23.29
2022-08-12T07:56:28.587Z,23.49
2022-08-12T07:58:59.491Z,23.67
2022-08-12T08:01:28.462Z,23.71
2022-08-12T08:04:18.670Z,23.75
2022-08-12T08:06:48.600Z,23.81
2022-08-12T08:09:19.123Z,24.00
2022-08-12T08:12:06.774Z,24.14
2022-08-12T08:14:35.006Z,24.19
2022-08-12T08:17:06.442Z,24.28
2022-08-12T08:19:48.545Z,24.49
2022-08-12T08:22:25.018Z,24.64
2022-08-12T08:25:35.254Z,24.66
2022-08-12T08:28:02.522Z,24.71
2022-08-12T08:30:33.258Z,24.87
2022-08-12T08:33:01.558Z,25.02
2022-08-12T08:35:46.113Z,25.18
2022-08-12T08:38:26.679Z,25.32
2022-08-12T08:42:16.870Z,25.63
2022-08-12T08:44:12.638Z,25.82
2022-08-12T08:46:40.842Z,25.88
2022-08-12T08:49:09.115Z,25.82
2022-08-12T08:51:37.525Z,25.94
2022-08-12T08:54:06.829Z,26.15
2022-08-12T08:56:45.744Z,26.25
2022-08-12T08:59:19.283Z,26.33
2022-08-12T09:01:49.153Z,26.37
2022-08-12T09:05:12.474Z,26.56
2022-08-12T09:07:18.035Z,26.78
2022-08-12T09:13:01.984Z,26.80
2022-08-12T09:15:35.259Z,26.75
2022-08-12T09:18:08.767Z,26.91
2022-08-12T09:20:53.954Z,26.92
2022-08-12T09:23:59.872Z,27.10
2022-08-12T09:26:10.360Z,27.10
2022-08-12T09:28:41.086Z,27.03
2022-08-12T09:32:04.382Z,27.16
2022-08-12T09:34:28.034Z,27.43
2022-08-12T09:37:00.601Z,27.36
2022-08-12T09:40:01.570Z,27.46
2022-08-12T09:42:43.641Z,27.22
2022-08-12T09:46:14.314Z,27.33
2022-08-12T09:51:01.510Z,27.67
2022-08-12T09:53:38.494Z,27.77
2022-08-12T09:57:01.040Z,27.71
2022-08-12T09:59:02.924Z,27.60
2022-08-12T10:01:35.380Z,27.68
2022-08-12T10:04:22.061Z,27.91
2022-08-12T10:06:54.757Z,28.05
2022-08-12T10:09:28.821Z,27.95
2022-08-12T10:12:33.059Z,27.94
2022-08-12T10:15:02.569Z,27.96
2022-08-12T10:17:30.699Z,27.71
2022-08-12T10:19:59.666Z,27.84
2022-08-12T10:22:39.089Z,27.78
2022-08-12T10:26:35.958Z,28.22
2022-08-12T10:28:40.411Z,28.20
2022-08-12T10:31:16.722Z,28.02
2022-08-12T10:33:54.934Z,28.06
2022-08-12T10:36:40.064Z,28.10
2022-08-12T10:40:00.217Z,28.22
2022-08-12T10:42:28.963Z,28.12
2022-08-12T10:45:03.874Z,27.96
2022-08-12T10:48:19.223Z,28.19
2022-08-12T10:50:36.009Z,28.17
2022-08-12T10:53:19.551Z,27.96
2022-08-12T10:55:56.144Z,27.80
2022-08-12T10:58:28.413Z,28.19
2022-08-12T11:01:48.856Z,28.39
2022-08-12T11:04:25.350Z,28.47
2022-08-12T11:07:03.113Z,28.54
2022-08-12T11:09:41.651Z,28.57
2022-08-12T11:12:55.252Z,28.30
2022-08-12T11:15:20.668Z,28.26
2022-08-12T11:17:54.947Z,28.32
2022-08-12T11:20:30.951Z,28.26
2022-08-12T11:23:04.001Z,28.10
2022-08-12T11:25:56.892Z,28.37
2022-08-12T11:28:33.957Z,28.47
2022-08-12T11:31:04.718Z,28.77
2022-08-12T11:34:04.406Z,28.98
2022-08-12T11:36:22.462Z,28.84
2022-08-12T11:38:51.547Z,29.10
2022-08-12T11:41:28.174Z,29.30
2022-08-12T11:44:02.040Z,29.43
2022-08-12T11:46:53.166Z,29.18
2022-08-12T11:49:31.417Z,29.30
2022-08-12T11:52:02.795Z,29.33
2022-08-12T11:54:31.429Z,29.49
2022-08-12T11:57:02.450Z,29.67
2022-08-12T12:02:21.853Z,29.36
2022-08-12T12:04:53.862Z,29.22
2022-08-12T12:08:36.495Z,29.47
2022-08-12T12:10:14.119Z,29.53
2022-08-12T12:12:49.570Z,29.90
2022-08-12T12:15:24.697Z,29.82
2022-08-12T12:17:55.981Z,29.68
2022-08-12T12:20:26.024Z,29.95
2022-08-12T12:22:58.788Z,29.65
2022-08-12T12:26:07.139Z,30.12
2022-08-12T12:28:37.295Z,29.80
2022-08-12T12:31:14.852Z,30.23
2022-08-12T12:33:58.447Z,30.34
2022-08-12T12:36:30.282Z,31.18
2022-08-12T12:39:00.530Z,31.33
2022-08-12T12:42:42.443Z,32.58
2022-08-12T12:44:26.077Z,33.10
2022-08-12T12:47:26.027Z,34.02
2022-08-12T12:49:57.204Z,33.87
2022-08-12T12:52:27.023Z,34.56
2022-08-12T12:54:58.545Z,33.98
2022-08-12T12:57:36.197Z,34.40
2022-08-12T13:00:18.518Z,34.16
2022-08-12T13:02:55.770Z,34.65
2022-08-12T13:05:28.022Z,33.92
2022-08-12T13:08:00.971Z,34.26
2022-08-12T13:10:30.701Z,33.98
2022-08-12T13:14:09.750Z,34.65
2022-08-12T13:15:53.888Z,34.12
2022-08-12T13:18:36.375Z,34.90
2022-08-12T13:21:05.973Z,36.05
2022-08-12T13:23:46.464Z,34.82
2022-08-12T13:26:17.887Z,34.24
2022-08-12T13:28:53.232Z,34.81
2022-08-12T13:31:24.962Z,34.54
2022-08-12T13:34:33.620Z,35.25
2022-08-12T13:36:45.331Z,34.84
2022-08-12T13:39:17.198Z,35.73
2022-08-12T13:41:45.185Z,34.65
2022-08-12T13:44:14.919Z,35.26
2022-08-12T13:46:43.815Z,34.30
2022-08-12T13:49:54.527Z,35.98
2022-08-12T13:52:23.490Z,36.91
2022-08-12T13:54:56.118Z,37.33
2022-08-12T13:57:44.525Z,36.26
2022-08-12T14:00:14.265Z,36.63
2022-08-12T14:02:42.734Z,37.63
2022-08-12T14:05:31.472Z,38.57
2022-08-12T14:08:02.736Z,39.02
2022-08-12T14:10:50.972Z,37.88
2022-08-12T14:14:03.734Z,37.63
2022-08-12T14:16:11.055Z,35.89
2022-08-12T14:18:44.800Z,36.01
2022-08-12T14:21:22.261Z,36.16
2022-08-12T14:24:05.685Z,34.74
2022-08-12T14:26:39.772Z,35.81
2022-08-12T14:29:08.186Z,37.14
2022-08-12T14:31:40.801Z,37.18
2022-08-12T14:34:11.459Z,36.88
2022-08-12T14:36:42.373Z,37.34
2022-08-12T14:39:10.416Z,36.82
2022-08-12T14:41:48.304Z,36.94
2022-08-12T14:44:59.476Z,37.51
2022-08-12T14:47:07.862Z,36.98
2022-08-12T14:50:37.280Z,35.68
2022-08-12T14:52:55.868Z,36.41
2022-08-12T14:58:03.944Z,36.39
2022-08-12T15:00:52.370Z,36.53
2022-08-12T15:03:23.284Z,36.96
2022-08-12T15:06:05.776Z,36.44
2022-08-12T15:08:41.934Z,35.89
2022-08-12T15:11:13.594Z,37.21
2022-08-12T15:13:45.654Z,36.23
2022-08-12T15:16:18.663Z,35.46
2022-08-12T15:18:55.243Z,36.09
2022-08-12T15:22:35.448Z,35.49
2022-08-12T15:24:18.185Z,35.53
2022-08-12T15:26:49.322Z,35.15
2022-08-12T15:29:18.469Z,35.76
2022-08-12T15:32:00.679Z,35.70
2022-08-12T15:34:33.355Z,36.09
2022-08-12T15:37:01.875Z,36.48
2022-08-12T15:39:31.349Z,36.47
2022-08-12T15:42:02.987Z,36.48
2022-08-12T15:44:38.255Z,35.54
2022-08-12T15:47:10.659Z,36.18
2022-08-12T15:49:54.441Z,36.50
2022-08-12T15:52:28.663Z,35.95
2022-08-12T15:55:06.604Z,36.02
2022-08-12T15:57:41.536Z,35.20
2022-08-12T16:00:29.032Z,36.48
2022-08-12T16:03:01.729Z,35.74
2022-08-12T16:06:17.157Z,35.73
2022-08-12T16:08:27.180Z,36.26
2022-08-12T16:10:57.724Z,35.44
2022-08-12T16:13:34.140Z,36.33
2022-08-12T16:16:22.949Z,36.06
2022-08-12T16:18:56.347Z,35.78
2022-08-12T16:21:52.592Z,34.91
2022-08-12T16:24:12.999Z,34.64
2022-08-12T16:26:44.989Z,35.18
2022-08-12T16:29:15.356Z,36.51
2022-08-12T16:31:45.107Z,36.12
2022-08-12T16:34:25.730Z,36.30
2022-08-12T16:37:07.362Z,35.10
2022-08-12T16:40:00.547Z,35.10
2022-08-12T16:42:27.822Z,35.67
2022-08-12T16:44:59.418Z,35.65
2022-08-12T16:47:28.858Z,35.87
2022-08-12T16:50:16.934Z,35.37
2022-08-12T16:52:48.457Z,35.76
2022-08-12T16:55:16.961Z,34.53
2022-08-12T16:57:50.176Z,34.74
2022-08-12T17:00:24.081Z,33.92
2022-08-12T17:02:57.233Z,32.60
2022-08-12T17:05:31.057Z,31.22
2022-08-12T17:08:01.127Z,30.43
2022-08-12T17:10:36.317Z,30.17
2022-08-12T17:13:10.037Z,29.81
2022-08-12T17:16:00.450Z,29.42
2022-08-12T17:18:43.661Z,29.30
2022-08-12T17:21:19.766Z,29.33
2022-08-12T17:23:52.980Z,29.27
2022-08-12T17:26:28.105Z,29.13
2022-08-12T17:28:59.158Z,28.98
2022-08-12T17:32:00.182Z,28.81
2022-08-12T17:34:38.630Z,28.53
2022-08-12T17:37:07.285Z,28.41
2022-08-12T17:40:06.786Z,28.37
2022-08-12T17:42:32.550Z,28.36
2022-08-12T17:45:18.416Z,28.24
2022-08-12T17:48:00.036Z,28.13
2022-08-12T17:50:34.585Z,27.99
2022-08-12T17:53:03.959Z,27.98
2022-08-12T17:55:40.589Z,27.96
2022-08-12T17:58:16.987Z,27.82
2022-08-12T18:00:47.470Z,27.78
2022-08-12T18:03:58.095Z,27.70
2022-08-12T18:06:13.721Z,27.53
2022-08-12T18:08:54.545Z,27.35
2022-08-12T18:12:05.527Z,27.29
2022-08-12T18:14:30.161Z,27.13
2022-08-12T18:17:02.483Z,27.09
2022-08-12T18:20:04.259Z,26.91
2022-08-12T18:22:22.311Z,26.84
2022-08-12T18:25:02.540Z,26.84
2022-08-12T18:27:46.696Z,26.75
2022-08-12T18:30:29.543Z,26.57
2022-08-12T18:33:03.180Z,26.33
2022-08-12T18:35:47.617Z,26.33
2022-08-12T18:38:24.724Z,26.09
2022-08-12T18:41:17.509Z,26.04
2022-08-12T18:43:59.452Z,25.89
2022-08-12T18:46:34.906Z,25.85
2022-08-12T18:49:17.729Z,25.71
2022-08-12T18:51:54.719Z,25.51
2022-08-12T18:54:25.744Z,25.36
2022-08-12T18:56:54.956Z,25.22
2022-08-12T19:00:00.076Z,25.08
2022-08-12T19:02:21.540Z,24.99
2022-08-12T19:04:53.893Z,24.81
2022-08-12T19:07:23.718Z,24.55
2022-08-12T19:09:58.664Z,24.36
2022-08-12T19:12:57.126Z,24.43
2022-08-12T19:15:30.020Z,24.40
2022-08-12T19:18:02.368Z,24.43
2022-08-12T19:20:34.161Z,24.08
2022-08-12T19:23:07.185Z,24.01
2022-08-12T19:26:01.354Z,23.87
2022-08-12T19:28:30.400Z,23.89
2022-08-12T19:31:55.650Z,23.42
2022-08-12T19:37:17.128Z,23.45
2022-08-12T19:40:09.872Z,23.38
2022-08-12T19:42:36.935Z,23.18
2022-08-12T19:45:12.209Z,23.25
2022-08-12T19:47:43.451Z,23.32
2022-08-12T19:50:12.240Z,23.23
2022-08-12T19:52:42.821Z,23.23
2022-08-12T19:55:19.471Z,23.16
2022-08-12T19:58:02.963Z,23.12
2022-08-12T20:00:34.446Z,22.97
2022-08-12T20:03:06.354Z,22.94
2022-08-12T20:06:05.682Z,22.92
2022-08-12T20:08:32.964Z,22.61
2022-08-12T20:12:11.143Z,22.73
2022-08-12T20:14:00.644Z,22.83
2022-08-12T20:16:57.906Z,22.60
2022-08-12T20:19:28.564Z,22.43
2022-08-12T20:22:15.069Z,22.42
2022-08-12T20:24:55.225Z,22.38
2022-08-12T20:27:29.090Z,22.25
2022-08-12T20:30:14.830Z,22.42
2022-08-12T20:32:54.035Z,22.23
2022-08-12T20:35:24.600Z,22.00
2022-08-12T20:38:07.200Z,22.04
2022-08-12T20:40:47.918Z,22.00
2022-08-12T20:43:19.107Z,21.93
2022-08-12T20:45:57.371Z,21.77
2022-08-12T20:48:29.310Z,21.70
2022-08-12T20:50:58.125Z,21.78
2022-08-12T20:53:57.823Z,21.97
2022-08-12T20:56:30.195Z,21.69
2022-08-12T20:59:01.338Z,21.59
2022-08-12T21:01:46.877Z,21.69
2022-08-12T21:04:34.957Z,21.74
2022-08-12T21:07:08.272Z,21.80
2022-08-12T21:09:41.877Z,21.71
2022-08-12T21:12:28.509Z,21.66
2022-08-12T21:15:16.955Z,21.49
2022-08-12T21:18:11.396Z,21.49
2022-08-12T21:20:52.729Z,21.41
2022-08-12T21:23:22.788Z,21.43
2022-08-12T21:25:52.677Z,21.38
2022-08-12T21:28:30.824Z,21.11
2022-08-12T21:32:34.558Z,20.98
2022-08-12T21:34:06.640Z,21.08
2022-08-12T21:36:40.273Z,20.77
2022-08-12T21:39:19.032Z,20.87
2022-08-12T21:41:50.360Z,21.02
2022-08-12T21:44:24.837Z,20.98
2022-08-12T21:47:20.748Z,20.84
2022-08-12T21:50:04.117Z,20.90
2022-08-12T21:52:36.598Z,20.80
2022-08-12T21:55:08.502Z,20.77
2022-08-12T21:57:53.196Z,20.84
2022-08-12T22:00:33.073Z,20.53
2022-08-12T22:04:02.336Z,20.45
2022-08-12T22:06:30.583Z,20.70
2022-08-12T22:09:03.101Z,20.74
2022-08-12T22:11:41.731Z,20.50
2022-08-12T22:14:21.714Z,20.64
2022-08-12T22:16:55.861Z,20.62
2022-08-12T22:19:24.057Z,20.73
2022-08-12T22:21:55.574Z,20.62
2022-08-12T22:24:27.214Z,20.48
2022-08-12T22:27:08.311Z,20.43
2022-08-12T22:30:04.978Z,20.36
2022-08-12T22:32:34.360Z,20.48
2022-08-12T22:35:24.362Z,20.38
2022-08-12T22:37:58.859Z,20.24
2022-08-12T22:40:26.848Z,20.25
2022-08-12T22:43:15.821Z,20.32
2022-08-12T22:46:01.310Z,20.25
2022-08-12T22:48:31.052Z,20.31
2022-08-12T22:50:59.276Z,20.26
2022-08-12T22:53:36.181Z,20.21
2022-08-12T22:56:07.309Z,20.08
2022-08-12T22:58:36.713Z,20.15
2022-08-12T23:01:10.892Z,20.17
2022-08-12T23:03:48.059Z,20.21
2022-08-12T23:06:20.278Z,20.05
2022-08-12T23:08:48.839Z,19.93
2022-08-12T23:11:17.232Z,19.97
2022-08-12T23:13:54.679Z,19.93
2022-08-12T23:16:28.799Z,19.84
2022-08-12T23:19:01.689Z,19.86
2022-08-12T23:22:03.414Z,19.90
2022-08-12T23:24:26.496Z,19.80
2022-08-12T23:27:13.005Z,19.76
2022-08-12T23:29:43.232Z,19.73
2022-08-12T23:32:13.463Z,19.86
2022-08-12T23:35:03.627Z,19.56
2022-08-12T23:37:46.498Z,19.43
2022-08-12T23:40:17.931Z,19.53
2022-08-12T23:42:47.847Z,19.56
2022-08-12T23:45:20.435Z,19.39
2022-08-12T23:48:00.367Z,19.42
2022-08-12T23:50:34.184Z,19.49
2022-08-12T23:53:05.809Z,19.36
2022-08-12T23:55:38.260Z,19.17
2022-08-12T23:58:20.654Z,19.21
